Tiempo atmosférico en la estación meteorológica de Santillana del Mar, Altamira, Cantabria (150 m.)



Fecha
DESCASC
Temp. máxima en grados centígrados (hora)
DESCASC
Temp. mínima en grados centígrados (hora)
DESCASC
Temp. media en grados centígrados
DESCASC
Racha de viento máxima en m/sg (hora)
DESCASC
Velocidad máxima media en intervalos de 10 minutos(hora)
DESCASC
Precipitaciones diarias en mm
DESCASC
Precipitaciones de 00:00 a 06:00 en mm
DESCASC
Precipitaciones de 06:00 a 12:00 en mm
DESCASC
Precipitaciones de 12:00 a 18:00 en mm
DESCASC
Precipitaciones de 18:00 a 24:00 en mm
DESCASC
17-09-2020 29 (15:00) 19 (07:20) 24 6.94 (13:40) 3.89 (13:40) 0.2 0.2 0 0 0
16-09-2020 24.4 (14:40) 16.2 (08:10) 20.3 5.56 (15:30) 3.61 (15:10) 0 0 0 0 0
15-09-2020 23.5 (13:00) 17.1 (07:40) 20.3 8.06 (08:10) 4.72 (15:20) 5.4 5.4 0 0 0
14-09-2020 25.9 (14:50) 19 (00:00) 22.4 8.06 (22:50) 4.17 (06:30) 0.2 0 0 0 0.2
13-09-2020 30.9 (14:30) 13.2 (00:00) 22 4.72 (15:30) 3.33 (23:50) 0 0 0 0 0
12-09-2020 24.7 (13:30) 15.9 (00:00) 20.3 6.11 (15:50) 3.61 (15:20) 0 0 0 0 0
11-09-2020 25.2 (14:00) 13.4 (00:00) 19.3 6.67 (14:50) 3.61 (14:50) 0 0 0 0 0
10-09-2020 22.7 (14:10) 13.7 (00:00) 18.2 6.67 (15:40) 4.17 (17:50) 0 0 0 0 0
09-09-2020 22.5 (13:00) 12.7 (00:00) 17.6 6.67 (15:20) 4.72 (15:20) 0 0 0 0 0
08-09-2020 22.4 (15:40) 11.6 (00:00) 17 9.17 (15:20) 5.28 (17:10) 0 0 0 0 0
07-09-2020 20.6 (16:40) 14.6 (23:59) 17.6 7.22 (16:50) 4.72 (14:50) 1 0.2 0.8 0 0
06-09-2020 20 (16:50) 15 (00:00) 17.5 6.39 (16:30) 3.61 (18:50) 0.8 0.4 0 0 0.4
05-09-2020 21.3 (14:40) 16.9 (00:00) 19.1 6.67 (17:30) 3.61 (17:30) 2.4 0 0 0 2.4
04-09-2020 26.5 (13:10) 14.4 (00:00) 20.4 6.11 (21:40) 3.61 (15:30) 0 0 0 0 0
03-09-2020 25.7 (15:50) 11.8 (00:00) 18.8 5 (16:00) 2.78 (17:20) 0 0 0 0 0
02-09-2020 22.7 (13:10) 14.3 (00:00) 18.5 6.94 (15:10) 4.44 (15:10) 0 0 0 0 0
01-09-2020 22.2 (15:10) 13.3 (00:00) 17.8 7.22 (17:30) 4.44 (17:00) 0 0 0 0 0
31-08-2020 23.1 (16:10) 9.7 (00:00) 16.4 5.56 (10:40) 3.06 (10:50) 0 0 0 0 0
30-08-2020 19.2 (15:30) 12.1 (00:00) 15.7 8.33 (12:00) 4.17 (10:10) 28 5.2 21.6 1 0.2
29-08-2020 18.9 (15:10) 13 (00:00) 15.9 17.5 (16:30) 9.72 (16:30) 23.4 2.2 12.2 7 2
28-08-2020 20.7 (00:00) 15.8 (00:00) 18.3 11.39 (16:20) 5.56 (14:50) 15.8 12.8 2.8 0.2 0
27-08-2020 24.8 (11:00) 18.5 (00:00) 21.6 9.17 (13:20) 5.28 (13:30) 0 0 0 0 0
26-08-2020 25.9 (13:10) 19.7 (00:00) 22.8 6.94 (15:00) 4.44 (16:20) 0 0 0 0 0
25-08-2020 24.7 (17:30) 16.5 (00:00) 20.6 7.78 (14:30) 4.72 (14:30) 0 0 0 0 0
24-08-2020 23.5 (13:20) 16 (00:00) 19.8 7.22 (15:20) 4.17 (16:40) 0 0 0 0 0
23-08-2020 22.7 (13:00) 13.7 (00:00) 18.2 7.5 (15:20) 4.72 (14:30) 0 0 0 0 0
22-08-2020 21.2 (16:00) 17.3 (00:00) 19.3 5.56 (05:00) 3.61 (05:00) 7.4 0 5.8 1.6 0
21-08-2020 22.4 (13:00) 18.6 (00:00) 20.5 5.83 (16:00) 3.06 (15:50) 0.4 0.4 0 0 0

Gráficas

Temp. máximas Temp. mínimas Temp. medias Precipitaciones Rachas de viento máximas Velocidades máximas media en intervalos de 10 minutos

Datos horarios

Fecha y hora oficial Temperatura (ºC) Velocidad del viento (km/h) Dirección del viento Racha (km/h) Dirección de racha Precipitación (mm) Presión (hPa) Tendencia (hPa) Humedad (%)
2020-09-19 23:00:00 17.6 6 Sudoeste 18 Sudoeste 0 -- -- 84
2020-09-19 22:00:00 17.8 6 Oeste 18 Sudoeste 0 -- -- 85
2020-09-19 21:00:00 17.6 5 Sudoeste 16 Noroeste 0 -- -- 88
2020-09-19 20:00:00 18.2 6 Oeste 18 Noroeste 0 -- -- 92
2020-09-19 19:00:00 19 7 Noroeste 20 Noroeste 0 -- -- 90
2020-09-19 18:00:00 18.9 6 Norte 17 Noroeste 0.2 -- -- 95
2020-09-19 17:00:00 18 8 Oeste 26 Oeste 0.6 -- -- 95
2020-09-19 16:00:00 18.5 6 Oeste 25 Oeste 0.2 -- -- 88
2020-09-19 15:00:00 17.8 9 Sudoeste 22 Sudoeste 0.8 -- -- 91
2020-09-19 14:00:00 17.2 9 Oeste 33 Oeste 0.4 -- -- 90
2020-09-19 13:00:00 19.1 14 Noroeste 32 Noroeste 0 -- -- 84
2020-09-19 12:00:00 19.9 6 Sudoeste 17 Sur 0 -- -- 72
2020-09-19 11:00:00 18.7 8 Sudoeste 16 Sudoeste 0 -- -- 81
2020-09-19 10:00:00 18.4 3 Oeste 14 Sur 0 -- -- 88
2020-09-19 09:00:00 17.4 13 Sur 21 Sudoeste 0 -- -- 90
2020-09-19 08:00:00 16.2 12 Sudoeste 18 Sudoeste 0 -- -- 93
2020-09-19 07:00:00 16.6 5 Sudoeste 32 Oeste 0.4 -- -- 94
2020-09-19 06:00:00 17.6 7 Oeste 22 Noroeste 0.8 -- -- 92
2020-09-19 05:00:00 17 8 Sudoeste 17 Sudoeste 0 -- -- 76
2020-09-19 04:00:00 17.2 4 Sur 18 Sur 0 -- -- 69
2020-09-19 03:00:00 18.5 15 Sur 31 Sur 0 -- -- 63
2020-09-19 02:00:00 18.8 13 Sur 23 Sur 0 -- -- 72
2020-09-19 01:00:00 18.1 9 Sudeste 26 Sur 0 -- -- 83
2020-09-19 00:00:00 18.8 14 Sur 23 Sur 0.4 -- -- 85
2020-09-18 23:00:00 19 2 Sur 16 Sudoeste 0 -- -- 93
2020-09-18 22:00:00 19 10 Sur 20 Sur 0 -- -- 94
2020-09-18 21:00:00 19.3 3 Norte 10 Oeste 0 -- -- 91
2020-09-18 20:00:00 20.5 4 Oeste 15 Norte 0 -- -- 88
2020-09-18 19:00:00 21.8 5 Noroeste 24 Noroeste 0 -- -- 81
2020-09-18 18:00:00 22.5 14 Norte 22 Norte 0 -- -- 77
2020-09-18 17:00:00 23 13 Norte 32 Noroeste 0 -- -- 75
2020-09-18 16:00:00 23.3 16 Noroeste 32 Noroeste 0 -- -- 74
2020-09-18 15:00:00 26.1 6 Sur 16 Sudeste 0 -- -- 37
2020-09-18 14:00:00 21.8 3 Norte 19 Norte 0 -- -- 84
2020-09-18 13:00:00 21.4 8 Norte 18 Norte 0 -- -- 87
2020-09-18 12:00:00 22.3 5 Este 9 Este 0 -- -- 71
2020-09-18 11:00:00 21.8 3 Sudeste 16 Sudeste 0 -- -- 74
2020-09-18 10:00:00 18.5 6 Sur 22 Sudeste 0.8 -- -- 90
2020-09-18 09:00:00 18.6 9 Sur 18 Sur 0 -- -- 89
2020-09-18 08:00:00 18.4 7 Sur 16 Sudeste 1 -- -- 90
2020-09-18 07:00:00 18.2 5 Sur 11 Noroeste 0 -- -- 94
2020-09-18 06:00:00 18.5 8 Norte 28 Noroeste 0 -- -- 93
2020-09-18 05:00:00 18.8 11 Noroeste 26 Noroeste 0 -- -- 88
2020-09-18 04:00:00 21.4 8 Noroeste 51 Sur 0 -- -- 65
2020-09-18 03:00:00 25.7 34 Sur 58 Sur 0 -- -- 34
2020-09-18 02:00:00 26.4 22 Sur 42 Sur 0 -- -- 40
2020-09-18 01:00:00 23.9 8 Sudeste 23 Sur 0 -- -- 53
2020-09-18 00:00:00 23.1 9 Sur 19 Sudeste 0 -- -- 62
2020-09-17 23:00:00 22 6 Sur 9 Sur 0 -- -- 79
2020-09-17 22:00:00 23 7 Sur 12 Sudeste 0 -- -- 71
2020-09-17 21:00:00 23.8 9 Sudeste 15 Sudeste 0 -- -- 64
2020-09-17 20:00:00 25.6 3 Este 17 Nordeste 0 -- -- 59
2020-09-17 19:00:00 26.9 7 Este 21 Este 0 -- -- 57
2020-09-17 18:00:00 27 7 Nordeste 17 Este 0 -- -- 68
2020-09-17 17:00:00 28.2 10 Nordeste 20 Este 0 -- -- 57
2020-09-17 16:00:00 29 8 Nordeste 17 Nordeste 0 -- -- 55
2020-09-17 15:00:00 29 7 Este 20 Este 0 -- -- 55
2020-09-17 14:00:00 28.2 11 Sudeste 25 Sudeste 0 -- -- 59
2020-09-17 13:00:00 24.7 6 Este 14 Este 0 -- -- 74
2020-09-17 12:00:00 22.5 5 Sudeste 14 Sur 0 -- -- 88
2020-09-17 11:00:00 20.8 4 Sur 12 Sur 0 -- -- 94
2020-09-17 10:00:00 20.5 7 Sur 12 Sur 0 -- -- 98
2020-09-17 09:00:00 19.3 5 Sur 8 Sudeste 0 -- -- 100
2020-09-17 08:00:00 19.1 4 Sur 9 Sur 0 -- -- 100
2020-09-17 07:00:00 19.3 4 Sudeste 10 Sur 0 -- -- 100
2020-09-17 06:00:00 19.5 6 Este 10 Este 0.2 -- -- 100
2020-09-17 05:00:00 19.7 6 Sur 10 Sudoeste 0 -- -- 100
2020-09-17 04:00:00 19.4 3 Sur 7 Sur 0 -- -- 100
2020-09-17 03:00:00 19.4 2 Sur 4 Sur 0 -- -- 99
2020-09-17 02:00:00 19.4 2 Norte 4 Norte 0 -- -- 99
2020-09-17 01:00:00 19.8 3 Sudoeste 8 Sudoeste 0 -- -- 98
2020-09-17 00:00:00 20 2 Sudoeste 8 Sudoeste 0 -- -- 97
2020-09-16 23:00:00 20.3 0 Calma 6 Sur 0 -- -- 97
2020-09-16 22:00:00 20.8 3 Norte 5 Norte 0 -- -- 97
2020-09-16 21:00:00 20.9 4 Norte 9 Norte 0 -- -- 96
2020-09-16 20:00:00 21.2 4 Norte 8 Norte 0 -- -- 94
2020-09-16 19:00:00 21.9 7 Noroeste 14 Noroeste 0 -- -- 92
2020-09-16 18:00:00 22.3 11 Norte 17 Norte 0 -- -- 90
2020-09-16 17:00:00 22.8 9 Norte 18 Noroeste 0 -- -- 89
2020-09-16 16:00:00 24 8 Norte 20 Norte 0 -- -- 84
2020-09-16 15:00:00 24.2 10 Norte 17 Noroeste 0 -- -- 84
2020-09-16 14:00:00 24.2 9 Norte 17 Noroeste 0 -- -- 83
2020-09-16 13:00:00 23.5 7 Nordeste 14 Nordeste 0 -- -- 81
2020-09-16 12:00:00 21.2 4 Nordeste 6 Nordeste 0 -- -- 99
2020-09-16 11:00:00 19.1 0 Calma 6 Sur 0 -- -- 100
2020-09-16 10:00:00 17.7 5 Sur 10 Sudoeste 0 -- -- 100
2020-09-16 09:00:00 16.7 9 Sudoeste 12 Sudoeste 0 -- -- 100
2020-09-16 08:00:00 16.4 4 Sudoeste 9 Sudoeste 0 -- -- 100
2020-09-16 07:00:00 17.3 4 Sur 6 Sur 0 -- -- 99
2020-09-16 06:00:00 18.1 3 Sudoeste 8 Sur 0 -- -- 100
2020-09-16 05:00:00 17.7 4 Sudoeste 8 Sur 0 -- -- 100
2020-09-16 04:00:00 17.9 3 Sur 5 Oeste 0 -- -- 100
2020-09-16 03:00:00 18 2 Oeste 8 Sudoeste 0 -- -- 99
2020-09-16 02:00:00 18.1 0 Calma 5 Sudoeste 0 -- -- 99
2020-09-16 01:00:00 18.6 4 Sudoeste 7 Sudoeste 0 -- -- 100
2020-09-16 00:00:00 18.9 0 Calma -- -- 0 -- -- 98
2020-09-15 23:00:00 19.1 0 Calma -- -- 0 -- -- 98
2020-09-15 22:00:00 19.4 2 Sur 3 Sur 0 -- -- 97
2020-09-15 21:00:00 19.8 3 Norte 5 Norte 0 -- -- 94
2020-09-15 20:00:00 21.1 4 Norte 8 Norte 0 -- -- 91
2020-09-15 19:00:00 22 4 Norte 13 Norte 0 -- -- 88
2020-09-15 18:00:00 22.4 10 Noroeste 21 Noroeste 0 -- -- 85
2020-09-15 17:00:00 22.9 12 Norte 27 Norte 0 -- -- 81
2020-09-15 16:00:00 22.8 14 Noroeste 26 Noroeste 0 -- -- 82
2020-09-15 15:00:00 22.9 17 Noroeste 25 Noroeste 0 -- -- 79
2020-09-15 14:00:00 23 15 Norte 21 Noroeste 0 -- -- 82
2020-09-15 13:00:00 23.5 8 Norte 18 Norte 0 -- -- 81
2020-09-15 12:00:00 23.1 5 Noroeste 15 Oeste 0 -- -- 82
2020-09-15 11:00:00 21.4 4 Noroeste 13 Sudoeste 0 -- -- 86
2020-09-15 10:00:00 19.3 6 Sur 14 Sudoeste 0 -- -- 96
2020-09-15 09:00:00 18 7 Sudoeste 29 Noroeste 0 -- -- 96
2020-09-15 08:00:00 17.6 11 Noroeste 21 Oeste 0 -- -- 95
2020-09-15 07:00:00 17.2 10 Sur 19 Sudeste 0 -- -- 97
2020-09-15 06:00:00 17.4 8 Sudoeste 12 Sudoeste 0 -- -- 98
2020-09-15 05:00:00 17.7 8 Sur 17 Sur 0.2 -- -- 98
2020-09-15 04:00:00 17.9 7 Norte 12 Norte 1.6 -- -- 97
2020-09-15 03:00:00 17.9 7 Sur 19 Sudoeste 0.2 -- -- 97
2020-09-15 02:00:00 18 4 Sudoeste 26 Sur 3.4 -- -- 96
2020-09-15 01:00:00 18.2 13 Sur 24 Sur 0 -- -- 94
2020-09-15 00:00:00 19 3 Noroeste 18 Oeste 0.2 -- -- 90
2020-09-14 23:00:00 20.1 7 Oeste 29 Noroeste 0 -- -- 81
2020-09-14 22:00:00 19.6 7 Noroeste 15 Oeste 0 -- -- 81
2020-09-14 21:00:00 19.9 5 Noroeste 11 Noroeste 0 -- -- 80
2020-09-14 20:00:00 21.6 10 Norte 16 Norte 0 -- -- 62
2020-09-14 19:00:00 24.5 3 Norte 8 Sudeste 0 -- -- 53
2020-09-14 18:00:00 22.9 4 Noroeste 14 Noroeste 0 -- -- 55
2020-09-14 17:00:00 22.2 5 Noroeste 12 Sudoeste 0 -- -- 55
2020-09-14 16:00:00 24.4 6 Noroeste 24 Oeste 0 -- -- 44
2020-09-14 15:00:00 25.9 10 Noroeste 26 Noroeste 0 -- -- 39
2020-09-14 14:00:00 25.8 15 Noroeste 27 Noroeste 0 -- -- 38
2020-09-14 13:00:00 25.2 7 Noroeste 23 Oeste 0 -- -- 45
2020-09-14 12:00:00 25 10 Noroeste 23 Oeste 0 -- -- 48
2020-09-14 11:00:00 23.9 8 Noroeste 18 Norte 0 -- -- 54
2020-09-14 10:00:00 22.2 8 Norte 13 Norte 0 -- -- 60
2020-09-14 09:00:00 21.9 4 Norte 10 Noroeste 0 -- -- 57
2020-09-14 08:00:00 22.9 4 Norte 13 Sur 0 -- -- 41
2020-09-14 07:00:00 23.8 8 Sur 23 Sur 0 -- -- 36
2020-09-14 06:00:00 24.3 10 Sur 14 Sudeste 0 -- -- 37
2020-09-14 05:00:00 25 9 Sur 18 Sudoeste 0 -- -- 35
2020-09-14 04:00:00 24.1 12 Sudoeste 18 Sudoeste 0 -- -- 39
2020-09-14 03:00:00 22.7 10 Sudoeste 19 Sudoeste 0 -- -- 49
2020-09-14 02:00:00 22.6 13 Sudoeste 17 Sudoeste 0 -- -- 51
2020-09-14 01:00:00 21.9 11 Sudoeste 17 Sur 0 -- -- 58
2020-09-14 00:00:00 22.1 12 Sudoeste 17 Sudoeste 0 -- -- 63
2020-09-13 23:00:00 22.7 11 Sur 15 Sudoeste 0 -- -- 64
2020-09-13 22:00:00 23.8 10 Sudoeste 15 Sudoeste 0 -- -- 66
2020-09-13 21:00:00 25.5 2 Sudeste 5 Este 0 -- -- 58
2020-09-13 20:00:00 27 2 Sudoeste 5 Noroeste 0 -- -- 48
2020-09-13 19:00:00 30 4 Noroeste 7 Noroeste 0 -- -- 38
2020-09-13 18:00:00 30.4 5 Norte 13 Norte 0 -- -- 38
2020-09-13 17:00:00 30 8 Norte 16 Norte 0 -- -- 34
2020-09-13 16:00:00 29.4 9 Norte 17 Norte 0 -- -- 46
2020-09-13 15:00:00 29.9 8 Norte 12 Norte 0 -- -- 47
2020-09-13 14:00:00 30.3 3 Nordeste 9 Sur 0 -- -- 37
2020-09-13 13:00:00 27.9 3 Sudeste 7 Sudeste 0 -- -- 44
2020-09-13 12:00:00 24.4 4 Sur 9 Sur 0 -- -- 65
2020-09-13 11:00:00 21.6 4 Sudeste 10 Sudoeste 0 -- -- 65
2020-09-13 10:00:00 17.4 6 Sur 14 Sudoeste 0 -- -- 84
2020-09-13 09:00:00 14.4 11 Sudoeste 13 Sudoeste 0 -- -- 91
2020-09-13 08:00:00 14.3 6 Sur 12 Sur 0 -- -- 92
2020-09-13 07:00:00 14.7 8 Sur 11 Sudeste 0 -- -- 99
2020-09-13 06:00:00 15 8 Sur 11 Sudeste 0 -- -- 100
2020-09-13 05:00:00 15 5 Sur 10 Sur 0 -- -- 99
2020-09-13 04:00:00 15.6 6 Sur 10 Sur 0 -- -- 99
2020-09-13 03:00:00 16.1 7 Sur 10 Sur 0 -- -- 98
2020-09-13 02:00:00 16.5 5 Sur 8 Sur 0 -- -- 96
2020-09-13 01:00:00 17.1 5 Sur 7 Sur 0 -- -- 94
2020-09-13 00:00:00 17.8 0 Calma 4 Este 0 -- -- 92
2020-09-12 23:00:00 18.5 2 Norte 5 Norte 0 -- -- 91
2020-09-12 22:00:00 19.3 0 Calma 6 Este 0 -- -- 88
2020-09-12 21:00:00 20.3 3 Este 9 Norte 0 -- -- 83
2020-09-12 20:00:00 21.8 5 Norte 12 Nordeste 0 -- -- 81
2020-09-12 19:00:00 23.4 5 Nordeste 13 Nordeste 0 -- -- 77
2020-09-12 18:00:00 24.2 6 Nordeste 19 Noroeste 0 -- -- 75
2020-09-12 17:00:00 24.5 9 Norte 21 Norte 0 -- -- 77
2020-09-12 16:00:00 24.3 11 Nordeste 22 Norte 0 -- -- 77
2020-09-12 15:00:00 24.1 12 Nordeste 21 Nordeste 0 -- -- 77
2020-09-12 14:00:00 24.5 10 Norte 21 Norte 0 -- -- 76
2020-09-12 13:00:00 23.7 6 Nordeste 13 Nordeste 0 -- -- 77
2020-09-12 12:00:00 22.6 6 Este 15 Sudeste 0 -- -- 82
2020-09-12 11:00:00 20.4 3 Sur 10 Sudeste 0 -- -- 87
2020-09-12 10:00:00 18.2 6 Sur 12 Sudoeste 0 -- -- 93
2020-09-12 09:00:00 16.6 6 Sudoeste 11 Sudoeste 0 -- -- 97
2020-09-12 08:00:00 15.9 5 Sudoeste 9 Sudoeste 0 -- -- 98
2020-09-12 07:00:00 16.4 6 Sur 9 Sudoeste 0 -- -- 98
2020-09-12 06:00:00 17 5 Sur 11 Sudoeste 0 -- -- 99
2020-09-12 05:00:00 17.7 2 Sur 5 Sur 0 -- -- 100
2020-09-12 04:00:00 17.4 2 Sudoeste 8 Sudoeste 0 -- -- 100
2020-09-12 03:00:00 17.3 2 Sur 3 Sur 0 -- -- 99
2020-09-12 02:00:00 17.2 2 Norte 4 Sur 0 -- -- 98
2020-09-12 01:00:00 17.6 3 Sur 5 Este 0 -- -- 97
2020-09-12 00:00:00 17.9 0 Calma 5 Este 0 -- -- 96
2020-09-11 23:00:00 18.3 0 Calma 6 Nordeste 0 -- -- 94
2020-09-11 22:00:00 19 4 Nordeste 6 Nordeste 0 -- -- 91
2020-09-11 21:00:00 20.4 3 Noroeste 8 Norte 0 -- -- 90
2020-09-11 20:00:00 21.4 3 Noroeste 11 Norte 0 -- -- 85
2020-09-11 19:00:00 23.2 7 Norte 15 Nordeste 0 -- -- 80
2020-09-11 18:00:00 24 10 Norte 19 Nordeste 0 -- -- 79
2020-09-11 17:00:00 24.6 11 Norte 23 Nordeste 0 -- -- 77
2020-09-11 16:00:00 25.1 10 Nordeste 23 Nordeste 0 -- -- 74
2020-09-11 15:00:00 24.8 12 Nordeste 24 Norte 0 -- -- 75
2020-09-11 14:00:00 25.2 8 Nordeste 21 Nordeste 0 -- -- 73
2020-09-11 13:00:00 24.3 10 Nordeste 18 Nordeste 0 -- -- 74
2020-09-11 12:00:00 22.9 6 Nordeste 12 Este 0 -- -- 77
2020-09-11 11:00:00 20.5 5 Sudeste 10 Sur 0 -- -- 84
2020-09-11 10:00:00 17.3 6 Sudeste 10 Sudeste 0 -- -- 99
2020-09-11 09:00:00 14.4 6 Sur 10 Sudeste 0 -- -- 100
2020-09-11 08:00:00 13.5 6 Sur 9 Sur 0 -- -- 100
2020-09-11 07:00:00 13.7 4 Sur 9 Sudoeste 0 -- -- 100
2020-09-11 06:00:00 14.3 4 Sur 8 Sudoeste 0 -- -- 100
2020-09-11 05:00:00 14.9 5 Sur 8 Sudoeste 0 -- -- 100
2020-09-11 04:00:00 14.7 5 Sur 6 Sur 0 -- -- 99
2020-09-11 03:00:00 15.6 0 Calma 4 Sudoeste 0 -- -- 100
2020-09-11 02:00:00 16 3 Sur 8 Sur 0 -- -- 99
2020-09-11 01:00:00 16.8 0 Calma 5 Sudoeste 0 -- -- 99
2020-09-11 00:00:00 17.4 2 Sudoeste 5 Sudoeste 0 -- -- 99
2020-09-10 23:00:00 17.3 2 Norte 5 Sudoeste 0 -- -- 97
2020-09-10 22:00:00 18 0 Calma 4 Norte 0 -- -- 97
2020-09-10 21:00:00 18.4 4 Norte 6 Noroeste 0 -- -- 93
2020-09-10 20:00:00 20.1 4 Norte 13 Norte 0 -- -- 87
2020-09-10 19:00:00 21.3 10 Norte 19 Noroeste 0 -- -- 83
2020-09-10 18:00:00 21.8 14 Norte 22 Norte 0 -- -- 81
2020-09-10 17:00:00 22.5 12 Norte 22 Noroeste 0 -- -- 78
2020-09-10 16:00:00 22.5 12 Norte 24 Norte 0 -- -- 78
2020-09-10 15:00:00 22.7 12 Norte 20 Norte 0 -- -- 70
2020-09-10 14:00:00 22.6 8 Norte 17 Noroeste 0 -- -- 77
2020-09-10 13:00:00 22.3 9 Norte 17 Norte 0 -- -- 79
2020-09-10 12:00:00 21.4 8 Norte 17 Norte 0 -- -- 81
2020-09-10 11:00:00 20.3 4 Sur 9 Sur 0 -- -- 82
2020-09-10 10:00:00 17.4 5 Sur 12 Sudoeste 0 -- -- 84
2020-09-10 09:00:00 15.2 8 Sur 14 Sudoeste 0 -- -- 85
2020-09-10 08:00:00 14.7 7 Sudoeste 12 Sudoeste 0 -- -- 89
2020-09-10 07:00:00 15 6 Sudoeste 14 Sudoeste 0 -- -- 87
2020-09-10 06:00:00 14.9 10 Sudoeste 15 Sur 0 -- -- 90
2020-09-10 05:00:00 16.1 8 Sudoeste 16 Sudoeste 0 -- -- 87
2020-09-10 04:00:00 16.1 10 Sudoeste 14 Sudoeste 0 -- -- 88
2020-09-10 03:00:00 16.4 7 Sudoeste 15 Sudoeste 0 -- -- 94
2020-09-10 02:00:00 16.6 8 Sudoeste 14 Sudoeste 0 -- -- 92
2020-09-10 01:00:00 17.1 7 Sudoeste 14 Sudoeste 0 -- -- 97
2020-09-10 00:00:00 17.4 4 Sudoeste 9 Sudoeste 0 -- -- 97
2020-09-09 23:00:00 17.7 3 Noroeste 5 Noroeste 0 -- -- 97
2020-09-09 22:00:00 18.3 0 Calma 5 Sudoeste 0 -- -- 96
2020-09-09 21:00:00 18.9 0 Calma 11 Noroeste 0 -- -- 92
2020-09-09 20:00:00 20.8 5 Noroeste 9 Norte 0 -- -- 83
2020-09-09 19:00:00 22.3 6 Norte 13 Noroeste 0 -- -- 78
2020-09-09 18:00:00 22.2 8 Norte 20 Noroeste 0 -- -- 78
2020-09-09 17:00:00 22.2 13 Norte 22 Norte 0 -- -- 78
2020-09-09 16:00:00 21.9 14 Norte 24 Norte 0 -- -- 74
2020-09-09 15:00:00 22.2 13 Norte 23 Noroeste 0 -- -- 69
2020-09-09 14:00:00 21.7 13 Noroeste 22 Noroeste 0 -- -- 69
2020-09-09 13:00:00 22.5 8 Norte 15 Noroeste 0 -- -- 67
2020-09-09 12:00:00 21.3 7 Norte 13 Norte 0 -- -- 66
2020-09-09 11:00:00 20 3 Sudeste 10 Sudoeste 0 -- -- 69
2020-09-09 10:00:00 16.9 8 Sur 12 Sudoeste 0 -- -- 80
2020-09-09 09:00:00 14.3 3 Oeste 14 Sudoeste 0 -- -- 93
2020-09-09 08:00:00 12.7 10 Sudoeste 14 Sudoeste 0 -- -- 90
2020-09-09 07:00:00 14.1 2 Noroeste 16 Sudoeste 0 -- -- 87
2020-09-09 06:00:00 13.1 6 Sudoeste 13 Sudoeste 0 -- -- 92
2020-09-09 05:00:00 13 4 Sur 15 Sudoeste 0 -- -- 92
2020-09-09 04:00:00 13.4 7 Sudoeste 10 Sudoeste 0 -- -- 92
2020-09-09 03:00:00 13.5 4 Sur 6 Sur 0 -- -- 93
2020-09-09 02:00:00 14.3 5 Sur 10 Sudoeste 0 -- -- 91
2020-09-09 01:00:00 14.7 4 Sur 9 Sudoeste 0 -- -- 85
2020-09-09 00:00:00 15.5 6 Sudoeste 10 Sudoeste 0 -- -- 83
2020-09-08 23:00:00 16.5 3 Sur 10 Este 0 -- -- 80
2020-09-08 22:00:00 17.3 5 Nordeste 23 Este 0 -- -- 74
2020-09-08 21:00:00 18.2 11 Este 21 Este 0 -- -- 67
2020-09-08 20:00:00 19.6 9 Nordeste 25 Nordeste 0 -- -- 60
2020-09-08 19:00:00 21.3 14 Nordeste 27 Este 0 -- -- 54
2020-09-08 18:00:00 22.1 15 Nordeste 32 Nordeste 0 -- -- 55
2020-09-08 17:00:00 22.2 15 Nordeste 30 Norte 0 -- -- 58
2020-09-08 16:00:00 22.3 14 Nordeste 33 Nordeste 0 -- -- 62
2020-09-08 15:00:00 22 17 Nordeste 31 Nordeste 0 -- -- 60
2020-09-08 14:00:00 22 12 Nordeste 25 Nordeste 0 -- -- 65
2020-09-08 13:00:00 21.7 10 Nordeste 21 Nordeste 0 -- -- 66
2020-09-08 12:00:00 21 8 Este 16 Sudeste 0 -- -- 66
2020-09-08 11:00:00 18.4 6 Sudeste 12 Sur 0 -- -- 74
2020-09-08 10:00:00 15.2 9 Sur 14 Sur 0 -- -- 84
2020-09-08 09:00:00 13.2 6 Sur 12 Sudoeste 0 -- -- 89
2020-09-08 08:00:00 12.3 8 Sudoeste 15 Sudoeste 0 -- -- 89
2020-09-08 07:00:00 11.7 10 Sudoeste 13 Sudoeste 0 -- -- 90
2020-09-08 06:00:00 11.6 11 Sudoeste 15 Sudoeste 0 -- -- 90
2020-09-08 05:00:00 12.1 9 Sudoeste 15 Sudoeste 0 -- -- 90
2020-09-08 04:00:00 12.1 9 Sudoeste 13 Sudoeste 0 -- -- 91
2020-09-08 03:00:00 12.3 9 Sur 11 Sudoeste 0 -- -- 90
2020-09-08 02:00:00 13.7 7 Sudoeste 16 Oeste 0 -- -- 87
2020-09-08 01:00:00 14.1 8 Sudoeste 13 Sudoeste 0 -- -- 87
2020-09-08 00:00:00 14.6 5 Sudoeste 10 Sudoeste 0 -- -- 86
2020-09-07 23:00:00 15 6 Sudoeste 9 Sudoeste 0 -- -- 84
2020-09-07 22:00:00 15.6 5 Sudeste 8 Este 0 -- -- 80
2020-09-07 21:00:00 16.3 0 Calma 12 Nordeste 0 -- -- 79
2020-09-07 20:00:00 18.1 6 Nordeste 20 Noroeste 0 -- -- 73
2020-09-07 19:00:00 19.4 13 Norte 24 Norte 0 -- -- 68
2020-09-07 18:00:00 20 13 Nordeste 23 Nordeste 0 -- -- 65
2020-09-07 17:00:00 20.5 15 Norte 26 Norte 0 -- -- 68
2020-09-07 16:00:00 20 10 Norte 25 Norte 0 -- -- 72
2020-09-07 15:00:00 19.3 15 Norte 26 Norte 0 -- -- 75
2020-09-07 14:00:00 20 9 Nordeste 22 Nordeste 0 -- -- 73
2020-09-07 13:00:00 19.9 9 Norte 19 Norte 0 -- -- 77
2020-09-07 12:00:00 18.6 5 Nordeste 9 Este 0 -- -- 79
2020-09-07 11:00:00 18.7 3 Sudoeste 9 Oeste 0 -- -- 79
2020-09-07 10:00:00 16.4 6 Sudoeste 12 Sudoeste 0 -- -- 91
2020-09-07 09:00:00 15 6 Sudoeste 13 Sudoeste 0 -- -- 94
2020-09-07 08:00:00 14.9 5 Sudoeste 12 Nordeste 0.8 -- -- 92
2020-09-07 07:00:00 15 6 Sudoeste 13 Sudoeste 0 -- -- 93
2020-09-07 06:00:00 14.8 7 Sudoeste 13 Sudoeste 0 -- -- 95
2020-09-07 05:00:00 15 7 Sudoeste 12 Sudoeste 0 -- -- 95
2020-09-07 04:00:00 15.4 5 Sudoeste 11 Sudoeste 0 -- -- 94
2020-09-07 03:00:00 15.6 5 Sudoeste 10 Sudoeste 0 -- -- 92
2020-09-07 02:00:00 15.5 5 Sudoeste 8 Sudoeste 0.2 -- -- 90
2020-09-07 01:00:00 15.5 0 Calma 11 Norte 0 -- -- 92
2020-09-07 00:00:00 15.7 3 Norte 18 Nordeste 0.2 -- -- 92
2020-09-06 23:00:00 16.3 9 Norte 20 Norte 0.2 -- -- 89
2020-09-06 22:00:00 17.1 9 Norte 20 Norte 0 -- -- 85
2020-09-06 21:00:00 17 3 Norte 12 Norte 0 -- -- 84
2020-09-06 20:00:00 18.2 7 Norte 21 Norte 0 -- -- 78
2020-09-06 19:00:00 18.3 13 Norte 23 Noroeste 0 -- -- 78
2020-09-06 18:00:00 20 12 Noroeste 21 Noroeste 0 -- -- 74
2020-09-06 17:00:00 19.9 9 Noroeste 23 Noroeste 0 -- -- 71
2020-09-06 16:00:00 19.2 7 Noroeste 17 Norte 0 -- -- 75
2020-09-06 15:00:00 19.7 7 Norte 17 Noroeste 0 -- -- 73
2020-09-06 14:00:00 19.3 5 Noroeste 12 Norte 0 -- -- 73
2020-09-06 13:00:00 18.7 7 Norte 14 Norte 0 -- -- 77
2020-09-06 12:00:00 18 5 Norte 12 Norte 0 -- -- 82
2020-09-06 11:00:00 17 2 Noroeste 9 Sudoeste 0 -- -- 94
2020-09-06 10:00:00 15.9 2 Sudoeste 9 Sudeste 0 -- -- 97
2020-09-06 09:00:00 15.1 4 Oeste 10 Noroeste 0 -- -- 96
2020-09-06 08:00:00 15.2 4 Noroeste 9 Sudoeste 0 -- -- 97
2020-09-06 07:00:00 15.3 4 Oeste 10 Sudoeste 0 -- -- 97
2020-09-06 06:00:00 15.3 3 Sudoeste 6 Sudoeste 0 -- -- 98
2020-09-06 05:00:00 15.4 0 Calma 11 Nordeste 0.2 -- -- 98
2020-09-06 04:00:00 15.7 7 Norte 15 Nordeste 0.2 -- -- 97
2020-09-06 03:00:00 16.3 6 Norte 13 Nordeste 0 -- -- 98
2020-09-06 02:00:00 16.7 0 Calma 6 Este 0 -- -- 98
2020-09-06 01:00:00 16.7 3 Sudeste 10 Nordeste 0 -- -- 98
2020-09-06 00:00:00 16.9 4 Nordeste 14 Nordeste 0.4 -- -- 97
2020-09-05 23:00:00 17.2 5 Nordeste 12 Nordeste 2 -- -- 95
2020-09-05 22:00:00 17.6 0 Calma 10 Nordeste 0 -- -- 91
2020-09-05 21:00:00 18.2 5 Nordeste 17 Nordeste 0 -- -- 85
2020-09-05 20:00:00 18.4 5 Nordeste 22 Nordeste 0 -- -- 82
2020-09-05 19:00:00 18.7 10 Nordeste 21 Nordeste 0 -- -- 88
2020-09-05 18:00:00 18.8 8 Norte 24 Nordeste 0 -- -- 91
2020-09-05 17:00:00 21.1 11 Norte 17 Norte 0 -- -- 77
2020-09-05 16:00:00 20.7 10 Norte 19 Norte 0 -- -- 79
2020-09-05 15:00:00 21.2 10 Norte 21 Norte 0 -- -- 75
2020-09-05 14:00:00 21.1 8 Norte 15 Norte 0 -- -- 76
2020-09-05 13:00:00 20.1 6 Norte 19 Norte 0 -- -- 83
2020-09-05 12:00:00 19.3 12 Norte 18 Norte 0 -- -- 88
2020-09-05 11:00:00 19.7 8 Norte 13 Norte 0 -- -- 88
2020-09-05 10:00:00 19.3 6 Norte 13 Norte 0 -- -- 89
2020-09-05 09:00:00 18.9 5 Norte 13 Norte 0 -- -- 92
2020-09-05 08:00:00 18.9 9 Norte 18 Norte 0 -- -- 93
2020-09-05 07:00:00 19.2 9 Norte 15 Norte 0 -- -- 95
2020-09-05 06:00:00 19.3 6 Noroeste 17 Norte 0 -- -- 95
2020-09-05 05:00:00 19.6 7 Noroeste 15 Noroeste 0 -- -- 95
2020-09-05 04:00:00 19.5 5 Sudoeste 19 Oeste 0 -- -- 93
2020-09-05 03:00:00 19.5 6 Sudoeste 16 Sudoeste 0 -- -- 93
2020-09-05 02:00:00 19.7 5 Sudoeste 18 Oeste 0 -- -- 93
2020-09-05 01:00:00 19.7 6 Sudoeste 18 Sudoeste 0 -- -- 94
2020-09-05 00:00:00 20 6 Oeste 21 Oeste 0 -- -- 95
2020-09-04 23:00:00 20.1 5 Noroeste 18 Noroeste 0 -- -- 95
2020-09-04 22:00:00 20 4 Sur 22 Norte 0 -- -- 91
2020-09-04 21:00:00 20.7 4 Nordeste 17 Noroeste 0 -- -- 83
2020-09-04 20:00:00 23.7 5 Noroeste 10 Norte 0 -- -- 69
2020-09-04 19:00:00 25.5 3 Norte 10 Norte 0 -- -- 62
2020-09-04 18:00:00 24.9 7 Norte 15 Norte 0 -- -- 63
2020-09-04 17:00:00 25.4 8 Norte 19 Norte 0 -- -- 50
2020-09-04 16:00:00 25.1 11 Norte 19 Noroeste 0 -- -- 58
2020-09-04 15:00:00 25.2 9 Norte 18 Noroeste 0 -- -- 59
2020-09-04 14:00:00 24.9 12 Norte 19 Noroeste 0 -- -- 58
2020-09-04 13:00:00 26.4 5 Nordeste 15 Sudeste 0 -- -- 56
2020-09-04 12:00:00 24.3 5 Norte 9 Norte 0 -- -- 60
2020-09-04 11:00:00 22 3 Sur 8 Sur 0 -- -- 69
2020-09-04 10:00:00 18.9 3 Sudeste 15 Sudoeste 0 -- -- 82
2020-09-04 09:00:00 16.6 9 Sudoeste 15 Sudoeste 0 -- -- 82
2020-09-04 08:00:00 14.4 9 Sur 18 Sur 0 -- -- 88
2020-09-04 07:00:00 14.9 8 Sur 12 Sudoeste 0 -- -- 86
2020-09-04 06:00:00 15 8 Sudoeste 12 Sudoeste 0 -- -- 88
2020-09-04 05:00:00 14.5 6 Sur 9 Sudoeste 0 -- -- 92
2020-09-04 04:00:00 16.7 9 Sudoeste 13 Sudoeste 0 -- -- 86
2020-09-04 03:00:00 16 7 Sur 12 Sur 0 -- -- 92
2020-09-04 02:00:00 17.7 7 Sudoeste 11 Sudoeste 0 -- -- 86
2020-09-04 01:00:00 17.5 3 Sur 5 Sudeste 0 -- -- 89
2020-09-04 00:00:00 18.5 0 Calma 5 Este 0 -- -- 83
2020-09-03 23:00:00 19.2 2 Sur 6 Sudoeste 0 -- -- 69
2020-09-03 22:00:00 19 5 Sudoeste 6 Sudoeste 0 -- -- 76
2020-09-03 21:00:00 19.8 2 Nordeste 8 Norte 0 -- -- 69
2020-09-03 20:00:00 22 5 Norte 11 Norte 0 -- -- 60
2020-09-03 19:00:00 23.9 7 Norte 12 Norte 0 -- -- 55
2020-09-03 18:00:00 24.4 7 Norte 15 Norte 0 -- -- 54
2020-09-03 17:00:00 25.1 9 Noroeste 18 Noroeste 0 -- -- 51
2020-09-03 16:00:00 25.7 9 Norte 18 Noroeste 0 -- -- 55
2020-09-03 15:00:00 25.1 6 Norte 15 Norte 0 -- -- 52
2020-09-03 14:00:00 24.6 6 Norte 12 Norte 0 -- -- 56
2020-09-03 13:00:00 23.5 5 Nordeste 12 Nordeste 0 -- -- 52
2020-09-03 12:00:00 22.1 3 Nordeste 9 Sur 0 -- -- 68
2020-09-03 11:00:00 19.6 4 Sur 11 Sur 0 -- -- 77
2020-09-03 10:00:00 16.3 5 Sur 12 Sur 0 -- -- 88
2020-09-03 09:00:00 13.7 10 Sur 14 Sudoeste 0 -- -- 97
2020-09-03 08:00:00 11.8 8 Sur 13 Sudoeste 0 -- -- 97
2020-09-03 07:00:00 12.1 10 Sur 14 Sur 0 -- -- 98
2020-09-03 06:00:00 12.5 8 Sudoeste 11 Sudoeste 0 -- -- 99
2020-09-03 05:00:00 12.9 4 Sur 8 Sur 0 -- -- 97
2020-09-03 04:00:00 12.9 5 Sur 8 Sur 0 -- -- 97
2020-09-03 03:00:00 13.9 3 Sur 9 Sur 0 -- -- 95
2020-09-03 02:00:00 14.1 6 Sudoeste 9 Sur 0 -- -- 92
2020-09-03 01:00:00 15.2 6 Sudoeste 8 Sudoeste 0 -- -- 83
2020-09-03 00:00:00 16.4 2 Sudeste 11 Este 0 -- -- 71
2020-09-02 23:00:00 17.3 8 Sudeste 12 Este 0 -- -- 66
2020-09-02 22:00:00 17.7 7 Este 15 Este 0 -- -- 65
2020-09-02 21:00:00 18.4 4 Nordeste 9 Norte 0 -- -- 69
2020-09-02 20:00:00 20.4 7 Norte 17 Nordeste 0 -- -- 66
2020-09-02 19:00:00 21.6 9 Norte 23 Nordeste 0 -- -- 64
2020-09-02 18:00:00 22.2 10 Nordeste 24 Nordeste 0 -- -- 65
2020-09-02 17:00:00 22.5 10 Norte 22 Norte 0 -- -- 63
2020-09-02 16:00:00 22.3 12 Norte 25 Norte 0 -- -- 65
2020-09-02 15:00:00 22.2 15 Norte 25 Norte 0 -- -- 72
2020-09-02 14:00:00 22.3 8 Norte 19 Norte 0 -- -- 68
2020-09-02 13:00:00 22.3 6 Nordeste 14 Este 0 -- -- 62
2020-09-02 12:00:00 21.5 5 Este 12 Nordeste 0 -- -- 59
2020-09-02 11:00:00 20.2 3 Este 8 Sudeste 0 -- -- 74
2020-09-02 10:00:00 17 6 Sur 14 Sudoeste 0 -- -- 87
2020-09-02 09:00:00 14.5 10 Sudoeste 13 Sudoeste 0 -- -- 91
2020-09-02 08:00:00 14.8 7 Sudoeste 15 Sudoeste 0 -- -- 87
2020-09-02 07:00:00 14.9 8 Sudoeste 14 Sudoeste 0 -- -- 88
2020-09-02 06:00:00 15 8 Sudoeste 14 Sudoeste 0 -- -- 89
2020-09-02 05:00:00 15.5 6 Sudoeste 12 Sudoeste 0 -- -- 87
2020-09-02 04:00:00 15.9 7 Sudoeste 13 Sudoeste 0 -- -- 87
2020-09-02 03:00:00 16.1 6 Sudoeste 13 Sudoeste 0 -- -- 89
2020-09-02 02:00:00 16.4 6 Sudoeste 11 Sudoeste 0 -- -- 90
2020-09-02 01:00:00 16.7 3 Sudoeste 9 Sudoeste 0 -- -- 89
2020-09-02 00:00:00 17 5 Sudoeste 7 Sudoeste 0 -- -- 87
2020-09-01 23:00:00 17.5 4 Oeste 5 Oeste 0 -- -- 82
2020-09-01 22:00:00 17.8 2 Noroeste 5 Noroeste 0 -- -- 85
2020-09-01 21:00:00 18.3 3 Noroeste 13 Noroeste 0 -- -- 86
2020-09-01 20:00:00 19.3 9 Norte 17 Norte 0 -- -- 82
2020-09-01 19:00:00 19.8 10 Norte 19 Norte 0 -- -- 80
2020-09-01 18:00:00 20.1 14 Norte 26 Norte 0 -- -- 80
2020-09-01 17:00:00 21.6 16 Norte 23 Norte 0 -- -- 66
2020-09-01 16:00:00 21.9 13 Norte 22 Noroeste 0 -- -- 62
2020-09-01 15:00:00 22 12 Norte 21 Norte 0 -- -- 65
2020-09-01 14:00:00 21.9 9 Norte 19 Noroeste 0 -- -- 65
2020-09-01 13:00:00 21.6 10 Norte 19 Noroeste 0 -- -- 74
2020-09-01 12:00:00 21.1 9 Norte 15 Norte 0 -- -- 79
2020-09-01 11:00:00 19.6 3 Sur 10 Sudoeste 0 -- -- 77
2020-09-01 10:00:00 17.2 8 Sur 10 Sur 0 -- -- 80
2020-09-01 09:00:00 15.7 5 Sudoeste 15 Sudoeste 0 -- -- 84
2020-09-01 08:00:00 14.6 6 Sudoeste 14 Sudoeste 0 -- -- 82
2020-09-01 07:00:00 14.5 7 Sudoeste 14 Sudoeste 0 -- -- 77
2020-09-01 06:00:00 14.1 8 Sudoeste 15 Sudoeste 0 -- -- 76
2020-09-01 05:00:00 13.7 7 Sur 15 Sudoeste 0 -- -- 81
2020-09-01 04:00:00 14.8 8 Sudoeste 13 Sudoeste 0 -- -- 76
2020-09-01 03:00:00 15.8 6 Sudoeste 17 Sudoeste 0 -- -- 72
2020-09-01 02:00:00 15.7 9 Sudoeste 15 Sudoeste 0 -- -- 80
2020-09-01 01:00:00 15.9 7 Sur 13 Sudoeste 0 -- -- 86
2020-09-01 00:00:00 16.2 6 Sudoeste 12 Sudoeste 0 -- -- 89
2020-08-31 23:00:00 16.8 2 Sudoeste 9 Sudoeste 0 -- -- 88
2020-08-31 22:00:00 17.2 5 Sur 7 Sur 0 -- -- 84
2020-08-31 21:00:00 18.2 3 Nordeste 10 Nordeste 0 -- -- 80
2020-08-31 20:00:00 19.5 5 Nordeste 12 Nordeste 0 -- -- 73
2020-08-31 19:00:00 20.2 6 Nordeste 15 Nordeste 0 -- -- 72
2020-08-31 18:00:00 21.4 9 Nordeste 17 Norte 0 -- -- 67
2020-08-31 17:00:00 22.3 8 Nordeste 18 Norte 0 -- -- 63
2020-08-31 16:00:00 22.8 6 Norte 15 Nordeste 0 -- -- 58
2020-08-31 15:00:00 22.1 5 Nordeste 15 Nordeste 0 -- -- 58
2020-08-31 14:00:00 21.3 6 Nordeste 13 Nordeste 0 -- -- 61
2020-08-31 13:00:00 20.9 7 Nordeste 14 Norte 0 -- -- 61
2020-08-31 12:00:00 19.9 5 Este 17 Sudeste 0 -- -- 61
2020-08-31 11:00:00 18 10 Sudeste 20 Sudeste 0 -- -- 69
2020-08-31 10:00:00 14.3 6 Sur 15 Sur 0 -- -- 79
2020-08-31 09:00:00 12.1 8 Sur 14 Sur 0 -- -- 86
2020-08-31 08:00:00 10.7 9 Sur 16 Sudeste 0 -- -- 88
2020-08-31 07:00:00 10.3 10 Sudeste 17 Sudeste 0 -- -- 92
2020-08-31 06:00:00 9.9 6 Sur 12 Sudoeste 0 -- -- 92
2020-08-31 05:00:00 10.6 8 Sudoeste 12 Sudoeste 0 -- -- 91
2020-08-31 04:00:00 10.7 10 Sur 14 Sudoeste 0 -- -- 91
2020-08-31 03:00:00 11.6 10 Sur 16 Sudoeste 0 -- -- 86
2020-08-31 02:00:00 12 10 Sudoeste 17 Oeste 0 -- -- 85
2020-08-31 01:00:00 11.8 10 Sur 14 Sur 0 -- -- 88
2020-08-31 00:00:00 13.2 8 Sudoeste 14 Sudoeste 0 -- -- 83
2020-08-30 23:00:00 13.7 6 Sudoeste 13 Sudoeste 0 -- -- 81
2020-08-30 22:00:00 14.6 6 Sudoeste 11 Sudoeste 0 -- -- 80
2020-08-30 21:00:00 16.2 3 Sudoeste 5 Oeste 0 -- -- 75
2020-08-30 20:00:00 18 4 Noroeste 12 Norte 0 -- -- 69
2020-08-30 19:00:00 18.7 7 Noroeste 21 Norte 0.2 -- -- 69
2020-08-30 18:00:00 19 6 Noroeste 13 Norte 0 -- -- 69
2020-08-30 17:00:00 15.9 5 Nordeste 28 Noroeste 0.4 -- -- 86
2020-08-30 16:00:00 18.1 9 Noroeste 24 Oeste 0 -- -- 68
2020-08-30 15:00:00 18.3 12 Oeste 26 Noroeste 0 -- -- 70
2020-08-30 14:00:00 17 9 Noroeste 18 Oeste 0.2 -- -- 78
2020-08-30 13:00:00 15.1 5 Oeste 25 Noroeste 0.4 -- -- 90
2020-08-30 12:00:00 16.2 13 Noroeste 30 Norte 0.6 -- -- 81
2020-08-30 11:00:00 14.4 6 Sudoeste 23 Sudoeste 0 -- -- 90
2020-08-30 10:00:00 13.7 14 Sudoeste 25 Sudoeste 0 -- -- 95
2020-08-30 09:00:00 12.2 5 Oeste 18 Sudoeste 6.8 -- -- 98
2020-08-30 08:00:00 12.3 9 Sudoeste 28 Sudoeste 7 -- -- 97
2020-08-30 07:00:00 12.6 10 Sudoeste 24 Sudoeste 7.2 -- -- 96
2020-08-30 06:00:00 12.7 7 Sudoeste 17 Sudoeste 0.2 -- -- 96
2020-08-30 05:00:00 12.7 9 Sudoeste 19 Sudoeste 0 -- -- 97
2020-08-30 04:00:00 12.5 14 Sudoeste 20 Sudoeste 1.6 -- -- 97
2020-08-30 03:00:00 13.3 5 Sudoeste 19 Oeste 0.2 -- -- 97
2020-08-30 02:00:00 12.8 6 Oeste 18 Norte 1.4 -- -- 99
2020-08-30 01:00:00 12.6 3 Sudeste 20 Sudoeste 1.8 -- -- 97
2020-08-30 00:00:00 13.2 9 Sudoeste 22 Sudoeste 0 -- -- 95
2020-08-29 23:00:00 13.3 5 Sudoeste 43 Norte 1.6 -- -- 95
2020-08-29 22:00:00 15.2 28 Norte 46 Norte 0.4 -- -- 84
2020-08-29 21:00:00 15.6 10 Noroeste 31 Noroeste 0 -- -- 76
2020-08-29 20:00:00 16.2 18 Norte 39 Noroeste 0 -- -- 75
2020-08-29 19:00:00 16.4 24 Norte 47 Norte 0 -- -- 72
2020-08-29 18:00:00 16.7 30 Norte 48 Norte 0 -- -- 74
2020-08-29 17:00:00 15.6 26 Norte 63 Norte 1.6 -- -- 94
2020-08-29 16:00:00 17.2 21 Norte 48 Norte 3 -- -- 90
2020-08-29 15:00:00 18.2 19 Norte 36 Noroeste 0 -- -- 87
2020-08-29 14:00:00 16.5 15 Noroeste 44 Noroeste 0.8 -- -- 91
2020-08-29 13:00:00 16.1 12 Noroeste 36 Norte 1.6 -- -- 96
2020-08-29 12:00:00 14.9 6 Oeste 23 Sudoeste 3 -- -- 96
2020-08-29 11:00:00 14.5 9 Sudoeste 27 Sudoeste 1.6 -- -- 93
2020-08-29 10:00:00 13.7 10 Sudoeste 23 Sudoeste 3.2 -- -- 94
2020-08-29 09:00:00 13.6 8 Sudoeste 28 Oeste 2.4 -- -- 92
2020-08-29 08:00:00 14 7 Sudoeste 17 Sudoeste 0 -- -- 89
2020-08-29 07:00:00 14.1 7 Sudoeste 26 Oeste 2 -- -- 90
2020-08-29 06:00:00 14.5 6 Sudoeste 29 Oeste 0.4 -- -- 85
2020-08-29 05:00:00 15 9 Oeste 24 Oeste 0 -- -- 82
2020-08-29 04:00:00 14.8 6 Sudoeste 21 Oeste 0 -- -- 85
2020-08-29 03:00:00 14.6 7 Oeste 23 Oeste 0 -- -- 83
2020-08-29 02:00:00 14.4 9 Oeste 25 Sudoeste 0 -- -- 86
2020-08-29 01:00:00 14.6 10 Noroeste 27 Oeste 1.8 -- -- 92
2020-08-29 00:00:00 15.9 9 Sudoeste 26 Oeste 0 -- -- 72
2020-08-28 23:00:00 16.8 8 Sudoeste 28 Noroeste 0 -- -- 74
2020-08-28 22:00:00 17.5 13 Noroeste 33 Oeste 0 -- -- 72
2020-08-28 21:00:00 17.6 12 Noroeste 35 Norte 0 -- -- 73
2020-08-28 20:00:00 18.1 13 Noroeste 36 Oeste 0 -- -- 72
2020-08-28 19:00:00 18.2 11 Noroeste 30 Noroeste 0 -- -- 74
2020-08-28 18:00:00 18.3 14 Noroeste 35 Noroeste 0 -- -- 70
2020-08-28 17:00:00 18.1 15 Noroeste 41 Noroeste 0.2 -- -- 72
2020-08-28 16:00:00 18.6 14 Noroeste 41 Noroeste 0 -- -- 76
2020-08-28 15:00:00 18.3 16 Noroeste 40 Norte 0 -- -- 83
2020-08-28 14:00:00 18.3 17 Noroeste 41 Norte 0 -- -- 83
2020-08-28 13:00:00 18.7 10 Noroeste 27 Oeste 0 -- -- 78
2020-08-28 12:00:00 17.8 6 Oeste 17 Noroeste 0 -- -- 86
2020-08-28 11:00:00 16.2 7 Sur 35 Oeste 1 -- -- 95
2020-08-28 10:00:00 16.5 4 Oeste 18 Oeste 0.2 -- -- 92
2020-08-28 09:00:00 16.3 4 Sudoeste 12 Sudoeste 0 -- -- 96
2020-08-28 08:00:00 16.1 6 Sudoeste 17 Sudoeste 0.4 -- -- 99
2020-08-28 07:00:00 16.4 5 Oeste 24 Noroeste 1.2 -- -- 99
2020-08-28 06:00:00 16.3 9 Noroeste 32 Oeste 2.6 -- -- 100
2020-08-28 05:00:00 17.3 11 Noroeste 33 Noroeste 4.2 -- -- 100
2020-08-28 04:00:00 18.2 13 Noroeste 27 Norte 2 -- -- 99
2020-08-28 03:00:00 18.8 13 Noroeste 30 Noroeste 3.4 -- -- 99
2020-08-28 02:00:00 19.7 8 Oeste 16 Oeste 0.6 -- -- 98
2020-08-28 01:00:00 20 9 Sur 13 Sur 0 -- -- 97
2020-08-28 00:00:00 20.7 6 Sudoeste 10 Oeste 0 -- -- 92
2020-08-27 23:00:00 21 3 Sudoeste 8 Sur 0 -- -- 90
2020-08-27 22:00:00 21.1 3 Sur 6 Sur 0 -- -- 90
2020-08-27 21:00:00 21.4 3 Noroeste 12 Noroeste 0 -- -- 87
2020-08-27 20:00:00 22.1 6 Noroeste 11 Noroeste 0 -- -- 84
2020-08-27 19:00:00 22.6 4 Norte 13 Norte 0 -- -- 84
2020-08-27 18:00:00 22.6 7 Noroeste 21 Norte 0 -- -- 84
2020-08-27 17:00:00 22.9 9 Noroeste 21 Noroeste 0 -- -- 83
2020-08-27 16:00:00 22.9 13 Noroeste 22 Norte 0 -- -- 88
2020-08-27 15:00:00 22.6 11 Noroeste 30 Noroeste 0 -- -- 88
2020-08-27 14:00:00 23 15 Noroeste 33 Norte 0 -- -- 86
2020-08-27 13:00:00 23.8 15 Noroeste 30 Noroeste 0 -- -- 85
2020-08-27 12:00:00 24 16 Noroeste 31 Noroeste 0 -- -- 81
2020-08-27 11:00:00 24.8 8 Noroeste 17 Norte 0 -- -- 82
2020-08-27 10:00:00 22 5 Sur 13 Sur 0 -- -- 94
2020-08-27 09:00:00 19.9 0 Calma 8 Sudoeste 0 -- -- 99
2020-08-27 08:00:00 18.6 0 Calma 5 Sudeste 0 -- -- 99
2020-08-27 07:00:00 18.5 3 Sudeste 15 Sur 0 -- -- 99
2020-08-27 06:00:00 19 11 Sur 16 Sudoeste 0 -- -- 100
2020-08-27 05:00:00 18.8 8 Sudoeste 12 Sudoeste 0 -- -- 100
2020-08-27 04:00:00 18.8 7 Sudoeste 9 Sudoeste 0 -- -- 100
2020-08-27 03:00:00 18.9 3 Norte 9 Sudoeste 0 -- -- 98
2020-08-27 02:00:00 19.1 6 Sudoeste 8 Sudoeste 0 -- -- 98
2020-08-27 01:00:00 19.4 3 Sur 6 Este 0 -- -- 97
2020-08-27 00:00:00 19.7 3 Nordeste 6 Nordeste 0 -- -- 97
2020-08-26 23:00:00 20.1 3 Nordeste 4 Nordeste 0 -- -- 95
2020-08-26 22:00:00 20.6 0 Calma 0 Calma 0 -- -- 93
2020-08-26 21:00:00 21.5 0 Calma 10 Norte 0 -- -- 90
2020-08-26 20:00:00 22 9 Norte 14 Norte 0 -- -- 88
2020-08-26 19:00:00 23.5 7 Norte 17 Norte 0 -- -- 84
2020-08-26 18:00:00 24.4 9 Norte 20 Nordeste 0 -- -- 80
2020-08-26 17:00:00 24.4 10 Norte 23 Norte 0 -- -- 84
2020-08-26 16:00:00 25.1 12 Norte 24 Norte 0 -- -- 80
2020-08-26 15:00:00 25.1 15 Norte 25 Norte 0 -- -- 79
2020-08-26 14:00:00 25.9 11 Norte 23 Nordeste 0 -- -- 78
2020-08-26 13:00:00 25.7 8 Nordeste 17 Norte 0 -- -- 75
2020-08-26 12:00:00 25.1 5 Norte 13 Nordeste 0 -- -- 71
2020-08-26 11:00:00 24 5 Nordeste 9 Sudeste 0 -- -- 78
2020-08-26 10:00:00 21.6 6 Sudeste 9 Sudeste 0 -- -- 94
2020-08-26 09:00:00 20.2 3 Sur 4 Sudoeste 0 -- -- 99
2020-08-26 08:00:00 19.8 0 Calma 3 Este 0 -- -- 98
2020-08-26 07:00:00 20.1 0 Calma 6 Norte 0 -- -- 98
2020-08-26 06:00:00 20.2 6 Norte 9 Norte 0 -- -- 97
2020-08-26 05:00:00 20.2 7 Sudoeste 11 Sudoeste 0 -- -- 97
2020-08-26 04:00:00 20.3 2 Norte 6 Noroeste 0 -- -- 96
2020-08-26 03:00:00 20.5 3 Norte 5 Norte 0 -- -- 96
2020-08-26 02:00:00 20.7 2 Norte 6 Norte 0 -- -- 95
2020-08-26 01:00:00 20.9 5 Norte 9 Norte 0 -- -- 92
2020-08-26 00:00:00 21.1 0 Calma 4 Oeste 0 -- -- 85
2020-08-25 23:00:00 20.9 2 Sudoeste 6 Sudoeste 0 -- -- 86
2020-08-25 22:00:00 21.3 3 Noroeste 13 Noroeste 0 -- -- 83
2020-08-25 21:00:00 21.9 3 Noroeste 12 Noroeste 0 -- -- 80
2020-08-25 20:00:00 23.1 3 Noroeste 18 Noroeste 0 -- -- 75
2020-08-25 19:00:00 23.8 13 Noroeste 25 Noroeste 0 -- -- 72
2020-08-25 18:00:00 24.1 14 Noroeste 26 Norte 0 -- -- 69
2020-08-25 17:00:00 24.3 13 Noroeste 23 Noroeste 0 -- -- 62
2020-08-25 16:00:00 24.5 13 Norte 23 Noroeste 0 -- -- 70
2020-08-25 15:00:00 24.1 15 Norte 28 Norte 0 -- -- 69
2020-08-25 14:00:00 24.5 15 Norte 25 Noroeste 0 -- -- 65
2020-08-25 13:00:00 24.2 11 Noroeste 24 Sudoeste 0 -- -- 64
2020-08-25 12:00:00 23.6 12 Noroeste 24 Noroeste 0 -- -- 65
2020-08-25 11:00:00 23.2 10 Noroeste 20 Norte 0 -- -- 64
2020-08-25 10:00:00 21.6 5 Sur 14 Noroeste 0 -- -- 74
2020-08-25 09:00:00 19.3 7 Sur 15 Oeste 0 -- -- 84
2020-08-25 08:00:00 19.6 5 Sudoeste 21 Oeste 0 -- -- 83
2020-08-25 07:00:00 18.2 6 Noroeste 15 Oeste 0 -- -- 86
2020-08-25 06:00:00 18.5 3 Sudoeste 21 Sudoeste 0 -- -- 80
2020-08-25 05:00:00 17.9 11 Sur 20 Sur 0 -- -- 88
2020-08-25 04:00:00 17.2 10 Sur 19 Sudoeste 0 -- -- 91
2020-08-25 03:00:00 16.5 8 Sur 14 Sudoeste 0 -- -- 95
2020-08-25 02:00:00 17 5 Sudoeste 9 Sudoeste 0 -- -- 94
2020-08-25 01:00:00 17 7 Sudoeste 9 Sudoeste 0 -- -- 93
2020-08-25 00:00:00 18 0 Calma 3 Sudeste 0 -- -- 91
2020-08-24 23:00:00 18.5 0 Calma 5 Sur 0 -- -- 89
2020-08-24 22:00:00 19 3 Este 8 Nordeste 0 -- -- 86
2020-08-24 21:00:00 20 5 Nordeste 13 Nordeste 0 -- -- 83
2020-08-24 20:00:00 21.6 7 Norte 18 Norte 0 -- -- 76
2020-08-24 19:00:00 22.5 10 Norte 25 Nordeste 0 -- -- 73
2020-08-24 18:00:00 22.6 15 Norte 25 Norte 0 -- -- 70
2020-08-24 17:00:00 23 12 Norte 26 Nordeste 0 -- -- 68
2020-08-24 16:00:00 23 12 Nordeste 26 Nordeste 0 -- -- 68
2020-08-24 15:00:00 22.8 12 Nordeste 24 Nordeste 0 -- -- 67
2020-08-24 14:00:00 23.2 11 Norte 22 Nordeste 0 -- -- 66
2020-08-24 13:00:00 23.2 6 Nordeste 17 Nordeste 0 -- -- 61
2020-08-24 12:00:00 22.8 9 Este 17 Este 0 -- -- 66
2020-08-24 11:00:00 21 6 Este 15 Nordeste 0 -- -- 75
2020-08-24 10:00:00 18.6 4 Sudeste 8 Sudeste 0 -- -- 92
2020-08-24 09:00:00 16.7 4 Sur 5 Sur 0 -- -- 98
2020-08-24 08:00:00 16.1 0 Calma 6 Sur 0 -- -- 97
2020-08-24 07:00:00 16.5 4 Sudoeste 6 Sur 0 -- -- 95
2020-08-24 06:00:00 17.2 2 Sur 4 Sur 0 -- -- 93
2020-08-24 05:00:00 17.5 0 Calma 8 Sudoeste 0 -- -- 93
2020-08-24 04:00:00 17.3 6 Sudoeste 9 Sur 0 -- -- 94
2020-08-24 03:00:00 17.6 3 Sur 5 Sur 0 -- -- 93
2020-08-24 02:00:00 17.5 0 Calma 4 Sur 0 -- -- 93
2020-08-24 01:00:00 17.6 2 Sur 5 Este 0 -- -- 91
2020-08-24 00:00:00 17.6 0 Calma 6 Sudeste 0 -- -- 90
2020-08-23 23:00:00 17.9 0 Calma 5 Nordeste 0 -- -- 89
2020-08-23 22:00:00 18.3 3 Norte 10 Norte 0 -- -- 87
2020-08-23 21:00:00 19.3 6 Norte 14 Norte 0 -- -- 84
2020-08-23 20:00:00 20.1 7 Norte 18 Norte 0 -- -- 76
2020-08-23 19:00:00 20.7 10 Norte 22 Norte 0 -- -- 77
2020-08-23 18:00:00 21.7 11 Nordeste 23 Norte 0 -- -- 72
2020-08-23 17:00:00 22.5 12 Norte 22 Norte 0 -- -- 69
2020-08-23 16:00:00 22.5 12 Norte 27 Nordeste 0 -- -- 72
2020-08-23 15:00:00 22.4 14 Norte 26 Norte 0 -- -- 73
2020-08-23 14:00:00 22.6 13 Norte 22 Norte 0 -- -- 75
2020-08-23 13:00:00 22.7 4 Nordeste 12 Nordeste 0 -- -- 61
2020-08-23 12:00:00 21.9 5 Nordeste 10 Nordeste 0 -- -- 64
2020-08-23 11:00:00 20.6 3 Sur 11 Sur 0 -- -- 76
2020-08-23 10:00:00 18.2 9 Sur 15 Sur 0 -- -- 84
2020-08-23 09:00:00 15.9 10 Sudoeste 15 Sur 0 -- -- 93
2020-08-23 08:00:00 14 7 Sur 10 Sur 0 -- -- 96
2020-08-23 07:00:00 14.4 7 Sur 14 Sudoeste 0 -- -- 95
2020-08-23 06:00:00 14.6 8 Sur 12 Sudoeste 0 -- -- 97
2020-08-23 05:00:00 14.4 7 Sudoeste 10 Sudoeste 0 -- -- 98
2020-08-23 04:00:00 14.4 6 Sur 9 Sur 0 -- -- 96
2020-08-23 03:00:00 15.5 5 Sur 10 Sudoeste 0 -- -- 92
2020-08-23 02:00:00 16.3 6 Sudoeste 11 Sudoeste 0 -- -- 92
2020-08-23 01:00:00 16.8 6 Sudoeste 11 Oeste 0 -- -- 91
2020-08-23 00:00:00 17.3 5 Sudoeste 10 Sudoeste 0 -- -- 88
2020-08-22 23:00:00 17.6 4 Sudoeste 10 Sudoeste 0 -- -- 90
2020-08-22 22:00:00 18.3 4 Sudoeste 5 Sudoeste 0 -- -- 87
2020-08-22 21:00:00 18.9 3 Sudoeste 9 Noroeste 0 -- -- 87
2020-08-22 20:00:00 19.4 4 Noroeste 13 Noroeste 0 -- -- 86
2020-08-22 19:00:00 19.9 7 Noroeste 13 Noroeste 0 -- -- 84
2020-08-22 18:00:00 20.4 6 Noroeste 13 Noroeste 0 -- -- 82
2020-08-22 17:00:00 20.6 9 Norte 15 Noroeste 0 -- -- 81
2020-08-22 16:00:00 21.2 7 Norte 13 Norte 0 -- -- 80
2020-08-22 15:00:00 20.7 6 Norte 12 Noroeste 0 -- -- 84
2020-08-22 14:00:00 19.6 0 Calma 6 Norte 0.2 -- -- 93
2020-08-22 13:00:00 18.2 4 Nordeste 15 Norte 1.4 -- -- 99
2020-08-22 12:00:00 17.9 9 Norte 15 Norte 5.8 -- -- 98
2020-08-22 11:00:00 19.2 8 Norte 14 Norte 0 -- -- 93
2020-08-22 10:00:00 19 4 Sudoeste 8 Sur 0 -- -- 94
2020-08-22 09:00:00 18.4 5 Sur 9 Sur 0 -- -- 97
2020-08-22 08:00:00 17.7 4 Sudoeste 8 Sudoeste 0 -- -- 98
2020-08-22 07:00:00 17.8 4 Sudoeste 6 Sudoeste 0 -- -- 98
2020-08-22 06:00:00 17.8 3 Norte 17 Noroeste 0 -- -- 98
2020-08-22 05:00:00 18 13 Norte 20 Noroeste 0 -- -- 96
2020-08-22 04:00:00 18.7 5 Noroeste 13 Oeste 0 -- -- 95
2020-08-22 03:00:00 18.9 6 Oeste 14 Oeste 0 -- -- 93
2020-08-22 02:00:00 18.5 4 Sur 5 Sur 0 -- -- 93
2020-08-22 01:00:00 18.2 2 Sur 4 Sudoeste 0 -- -- 93
2020-08-22 00:00:00 18.7 0 Calma 6 Nordeste 0 -- -- 91
2020-08-21 23:00:00 18.9 5 Nordeste 8 Nordeste 0 -- -- 90
2020-08-21 22:00:00 18.9 2 Norte 6 Sudeste 0 -- -- 89
2020-08-21 21:00:00 19.7 3 Sudeste 13 Sudeste 0 -- -- 84
2020-08-21 20:00:00 20.5 8 Sudeste 12 Sur 0 -- -- 80
2020-08-21 19:00:00 21 6 Nordeste 13 Nordeste 0 -- -- 78
2020-08-21 18:00:00 21.3 6 Nordeste 15 Nordeste 0 -- -- 78
2020-08-21 17:00:00 21.6 10 Norte 19 Norte 0 -- -- 72
2020-08-21 16:00:00 22 11 Norte 21 Norte 0 -- -- 69
2020-08-21 15:00:00 22.2 10 Nordeste 20 Nordeste 0 -- -- 69
2020-08-21 14:00:00 22.4 8 Nordeste 20 Nordeste 0 -- -- 74
2020-08-21 13:00:00 22.4 8 Norte 19 Norte 0 -- -- 77
2020-08-21 12:00:00 21.1 7 Nordeste 14 Nordeste 0 -- -- 86
2020-08-21 11:00:00 20.6 6 Nordeste 10 Nordeste 0 -- -- 100
2020-08-21 10:00:00 19.9 3 Norte 5 Norte 0 -- -- 100
2020-08-21 09:00:00 19.5 3 Norte 5 Norte 0 -- -- 100
2020-08-21 08:00:00 18.9 0 Calma 5 Nordeste 0 -- -- 100
2020-08-21 07:00:00 18.7 4 Sudeste 6 Sudeste 0 -- -- 100
2020-08-21 06:00:00 18.9 3 Sur 4 Sur 0 -- -- 100
2020-08-21 05:00:00 19.2 2 Noroeste 4 Sudoeste 0 -- -- 99
2020-08-21 04:00:00 19.4 0 Calma 9 Sudoeste 0 -- -- 99
2020-08-21 03:00:00 19.8 3 Sudoeste 14 Sudoeste 0 -- -- 99
2020-08-21 02:00:00 19.9 3 Oeste 8 Sur 0 -- -- 99
2020-08-21 01:00:00 19.8 2 Oeste 14 Noroeste 0.4 -- -- 99
2020-08-21 00:00:00 20 4 Noroeste 14 Norte 1.2 -- -- 99